createdAt,value
2023-09-26T00:02:05.955Z,11.30
2023-09-26T00:06:53.266Z,10.32
2023-09-26T00:11:43.186Z,16.27
2023-09-26T00:16:30.444Z,11.07
2023-09-26T00:21:17.724Z,12.30
2023-09-26T00:26:05.267Z,12.25
2023-09-26T00:30:55.141Z,18.02
2023-09-26T00:35:42.404Z,15.77
2023-09-26T00:40:29.609Z,13.02
2023-09-26T00:45:17.042Z,15.02
2023-09-26T00:50:08.649Z,15.15
2023-09-26T00:54:56.361Z,15.93
2023-09-26T00:59:43.958Z,17.45
2023-09-26T01:04:31.315Z,19.23
2023-09-26T01:09:21.323Z,21.20
2023-09-26T01:14:08.905Z,21.38
2023-09-26T01:18:56.226Z,23.23
2023-09-26T01:23:46.190Z,22.23
2023-09-26T01:28:37.231Z,22.33
2023-09-26T01:33:24.662Z,20.25
2023-09-26T01:38:12.081Z,23.33
2023-09-26T01:42:59.596Z,21.40
2023-09-26T01:47:50.488Z,22.17
2023-09-26T01:52:37.820Z,20.50
2023-09-26T01:57:25.118Z,27.20
2023-09-26T02:02:13.038Z,22.27
2023-09-26T02:07:03.194Z,25.27
2023-09-26T02:11:50.627Z,27.48
2023-09-26T02:16:38.105Z,25.42
2023-09-26T02:21:55.615Z,21.48
2023-09-26T02:26:45.623Z,21.35
2023-09-26T02:31:32.909Z,22.90
2023-09-26T02:36:20.153Z,22.15
2023-09-26T02:41:07.279Z,22.08
2023-09-26T02:45:57.334Z,20.23
2023-09-26T02:50:44.726Z,22.60
2023-09-26T02:55:32.156Z,20.75
2023-09-26T03:00:20.049Z,22.35
2023-09-26T03:05:10.901Z,20.65
2023-09-26T03:09:58.318Z,19.52
2023-09-26T03:14:45.542Z,20.67
2023-09-26T03:19:33.057Z,21.77
2023-09-26T03:24:23.066Z,19.40
2023-09-26T03:29:10.885Z,22.08
2023-09-26T03:33:58.835Z,22.33
2023-09-26T03:38:47.712Z,20.38
2023-09-26T03:43:37.804Z,21.80
2023-09-26T03:48:28.208Z,19.23
2023-09-26T03:53:15.655Z,20.33
2023-09-26T03:58:03.468Z,18.52
2023-09-26T04:02:53.503Z,19.23
2023-09-26T04:07:40.951Z,25.38
2023-09-26T04:12:28.268Z,20.80
2023-09-26T04:17:15.377Z,23.13
2023-09-26T04:22:05.190Z,16.42
2023-09-26T04:26:52.534Z,18.92
2023-09-26T04:31:40.045Z,18.48
2023-09-26T04:36:27.377Z,18.63
2023-09-26T04:41:17.276Z,20.77
2023-09-26T04:46:20.322Z,22.38
2023-09-26T04:51:08.830Z,19.45
2023-09-26T04:55:55.969Z,19.80
2023-09-26T05:00:45.699Z,18.08
2023-09-26T05:05:32.916Z,16.83
2023-09-26T05:10:20.547Z,16.15
2023-09-26T05:15:10.123Z,18.77
2023-09-26T05:20:00.091Z,16.80
2023-09-26T05:24:47.322Z,17.40
2023-09-26T05:29:34.534Z,16.98
2023-09-26T05:34:21.723Z,16.10
2023-09-26T05:39:11.587Z,17.13
2023-09-26T05:43:58.872Z,16.63
2023-09-26T05:48:46.021Z,16.73
2023-09-26T05:53:33.326Z,14.45
2023-09-26T05:58:23.234Z,16.48
2023-09-26T06:03:10.558Z,18.83
2023-09-26T06:07:57.937Z,16.13
2023-09-26T06:12:45.090Z,15.23
2023-09-26T06:17:38.392Z,14.75
2023-09-26T06:22:25.546Z,18.35
2023-09-26T06:27:12.935Z,15.48
2023-09-26T06:36:51.142Z,17.92
2023-09-26T06:41:38.537Z,15.48
2023-09-26T06:46:26.012Z,19.33
2023-09-26T06:51:13.245Z,16.75
2023-09-26T06:56:05.367Z,19.60
2023-09-26T07:00:52.700Z,17.17
2023-09-26T07:05:39.951Z,18.15
2023-09-26T07:10:27.447Z,19.73
2023-09-26T07:15:17.923Z,16.60
2023-09-26T07:20:06.110Z,16.70
2023-09-26T07:24:53.524Z,20.08
2023-09-26T07:29:40.881Z,17.75
2023-09-26T07:34:31.148Z,21.98
2023-09-26T07:39:18.350Z,16.77
2023-09-26T07:44:06.088Z,17.92
2023-09-26T07:48:53.318Z,17.40
2023-09-26T07:53:43.385Z,18.85
2023-09-26T07:58:31.016Z,16.70
2023-09-26T08:03:18.208Z,16.33
2023-09-26T08:08:08.165Z,17.45
2023-09-26T08:12:58.440Z,12.90
2023-09-26T08:17:45.644Z,13.90
2023-09-26T08:22:32.942Z,13.98
2023-09-26T08:27:20.180Z,17.58
2023-09-26T08:32:10.940Z,14.20
2023-09-26T08:36:58.461Z,16.17
2023-09-26T08:41:48.081Z,13.30
2023-09-26T08:46:36.412Z,13.98
2023-09-26T08:51:27.094Z,14.50
2023-09-26T08:56:14.365Z,14.68
2023-09-26T09:01:02.216Z,14.27
2023-09-26T09:05:49.460Z,13.93
2023-09-26T09:10:52.256Z,12.30
2023-09-26T09:15:39.684Z,13.10
2023-09-26T09:20:32.335Z,17.50
2023-09-26T09:25:30.162Z,14.95
2023-09-26T09:30:19.985Z,13.65
2023-09-26T09:35:09.747Z,12.63
2023-09-26T09:39:57.079Z,12.70
2023-09-26T09:44:44.571Z,15.00
2023-09-26T09:49:41.525Z,15.52
2023-09-26T09:54:34.353Z,13.55
2023-09-26T09:59:25.899Z,10.98
2023-09-26T10:04:14.668Z,11.32
2023-09-26T10:09:05.529Z,14.88
2023-09-26T10:13:52.968Z,11.18
2023-09-26T10:18:41.907Z,14.32
2023-09-26T10:23:29.411Z,12.18
2023-09-26T10:28:21.585Z,15.80
2023-09-26T10:33:40.171Z,12.05
2023-09-26T10:38:29.997Z,16.80
2023-09-26T10:48:16.834Z,7.78
2023-09-26T10:53:05.004Z,13.98
2023-09-26T10:57:52.183Z,8.75
2023-09-26T11:02:44.066Z,10.27
2023-09-26T11:07:31.481Z,6.47
2023-09-26T11:12:18.928Z,8.40
2023-09-26T11:17:06.107Z,7.18
2023-09-26T11:21:56.460Z,11.00
2023-09-26T11:26:44.950Z,6.85
2023-09-26T11:31:32.395Z,5.60
2023-09-26T11:36:19.765Z,6.80
2023-09-26T11:41:11.450Z,8.30
2023-09-26T11:46:02.419Z,7.47
2023-09-26T11:50:50.289Z,5.35
2023-09-26T11:55:37.907Z,8.50
2023-09-26T12:00:28.321Z,5.15
2023-09-26T12:05:20.394Z,4.45
2023-09-26T12:10:09.505Z,6.07
2023-09-26T12:15:16.978Z,6.50
2023-09-26T12:20:08.948Z,5.88
2023-09-26T12:24:57.707Z,7.50
2023-09-26T12:29:44.838Z,3.85
2023-09-26T12:34:32.075Z,6.03
2023-09-26T12:39:21.856Z,5.20
2023-09-26T12:44:11.399Z,6.15
2023-09-26T12:48:58.980Z,5.63
2023-09-26T12:53:46.260Z,3.92
2023-09-26T12:58:38.364Z,5.30
2023-09-26T13:03:25.658Z,3.85
2023-09-26T13:08:13.012Z,3.95
2023-09-26T13:13:00.286Z,4.00
2023-09-26T13:17:50.223Z,4.05
2023-09-26T13:22:37.888Z,4.85
2023-09-26T13:27:26.220Z,4.32
2023-09-26T13:32:13.905Z,3.95
2023-09-26T13:37:04.220Z,2.47
2023-09-26T13:41:51.478Z,3.42
2023-09-26T13:46:38.785Z,3.35
2023-09-26T13:51:26.030Z,3.88
2023-09-26T13:56:16.573Z,9.30
2023-09-26T14:01:03.896Z,3.38
2023-09-26T14:05:51.398Z,3.25
2023-09-26T14:10:38.736Z,4.65
2023-09-26T14:15:28.490Z,4.82
2023-09-26T14:20:16.005Z,6.93
2023-09-26T14:25:03.278Z,4.15
2023-09-26T14:29:50.394Z,5.05
2023-09-26T14:34:40.230Z,4.00
2023-09-26T14:39:27.567Z,5.72
2023-09-26T14:44:17.492Z,5.90
2023-09-26T14:49:06.882Z,9.25
2023-09-26T14:53:56.736Z,4.82
2023-09-26T14:58:44.084Z,6.20
2023-09-26T15:03:36.880Z,6.85
2023-09-26T15:08:24.669Z,3.83
2023-09-26T15:13:15.026Z,6.80
2023-09-26T15:18:02.370Z,5.93
2023-09-26T15:22:50.968Z,3.55
2023-09-26T15:27:38.171Z,6.30
2023-09-26T15:32:28.073Z,5.47
2023-09-26T15:37:15.486Z,4.43
2023-09-26T15:42:02.728Z,4.88
2023-09-26T15:46:50.126Z,5.32
2023-09-26T15:51:39.989Z,4.95
2023-09-26T15:56:27.132Z,5.53
2023-09-26T16:01:14.667Z,4.75
2023-09-26T16:06:02.000Z,7.07
2023-09-26T16:10:51.825Z,7.18
2023-09-26T16:15:39.252Z,6.80
2023-09-26T16:20:26.712Z,10.85
2023-09-26T16:25:14.060Z,7.13
2023-09-26T16:30:07.382Z,4.90
2023-09-26T16:34:55.405Z,6.57
2023-09-26T16:39:42.624Z,5.75
2023-09-26T16:44:29.877Z,5.93
2023-09-26T16:49:21.237Z,5.60
2023-09-26T16:54:08.487Z,9.02
2023-09-26T16:58:55.965Z,5.25
2023-09-26T17:03:43.237Z,7.05
2023-09-26T17:08:33.253Z,3.47
2023-09-26T17:13:20.436Z,7.32
2023-09-26T17:18:07.789Z,7.20
2023-09-26T17:22:55.019Z,7.18
2023-09-26T17:27:44.923Z,5.97
2023-09-26T17:32:32.160Z,4.25
2023-09-26T17:37:19.305Z,4.45
2023-09-26T17:42:06.454Z,7.93
2023-09-26T17:46:56.321Z,6.20
2023-09-26T17:51:43.781Z,9.40
2023-09-26T17:56:31.100Z,5.00
2023-09-26T18:01:18.474Z,11.77
2023-09-26T18:06:08.467Z,9.55
2023-09-26T18:10:55.630Z,3.83
2023-09-26T18:15:43.944Z,5.32
2023-09-26T18:20:31.196Z,5.28
2023-09-26T18:25:25.766Z,4.72
2023-09-26T18:30:13.613Z,4.63
2023-09-26T18:35:00.778Z,7.55
2023-09-26T18:39:47.912Z,5.18
2023-09-26T18:45:07.200Z,7.82
2023-09-26T18:49:54.396Z,5.70
2023-09-26T18:54:43.195Z,6.55
2023-09-26T18:59:30.508Z,5.30
2023-09-26T19:04:20.347Z,9.68
2023-09-26T19:09:07.568Z,4.93
2023-09-26T19:13:54.790Z,8.73
2023-09-26T19:18:58.187Z,7.72
2023-09-26T19:23:51.989Z,4.65
2023-09-26T19:28:39.387Z,8.23
2023-09-26T19:33:26.890Z,6.00
2023-09-26T19:38:14.822Z,6.65
2023-09-26T19:43:07.501Z,10.35
2023-09-26T19:47:55.260Z,7.03
2023-09-26T19:52:48.070Z,8.85
2023-09-26T19:57:35.277Z,8.65
2023-09-26T20:02:25.184Z,6.70
2023-09-26T20:07:12.537Z,6.90
2023-09-26T20:11:59.846Z,8.18
2023-09-26T20:16:47.187Z,7.47
2023-09-26T20:21:37.231Z,7.35
2023-09-26T20:26:24.803Z,7.82
2023-09-26T20:31:15.845Z,8.32
2023-09-26T20:36:03.278Z,7.78
2023-09-26T20:41:02.206Z,6.72
2023-09-26T20:45:49.475Z,7.53
2023-09-26T20:50:36.714Z,8.55
2023-09-26T20:55:23.981Z,10.85
2023-09-26T21:00:15.008Z,7.72
2023-09-26T21:05:02.307Z,6.40
2023-09-26T21:09:49.658Z,7.07
2023-09-26T21:14:37.636Z,7.82
2023-09-26T21:19:27.497Z,10.27
2023-09-26T21:24:14.719Z,7.95
2023-09-26T21:29:02.082Z,7.03
2023-09-26T21:33:49.399Z,10.68
2023-09-26T21:38:39.226Z,9.43
2023-09-26T21:43:26.522Z,7.47
2023-09-26T21:48:13.807Z,7.15
2023-09-26T21:53:01.073Z,7.55
2023-09-26T21:57:51.112Z,8.75
2023-09-26T22:02:38.333Z,8.80
2023-09-26T22:07:25.532Z,13.38
2023-09-26T22:12:13.828Z,8.10
2023-09-26T22:17:03.686Z,7.82
2023-09-26T22:21:50.998Z,8.48
2023-09-26T22:26:38.288Z,8.38
2023-09-26T22:31:25.528Z,8.60
2023-09-26T22:36:16.230Z,13.30
2023-09-26T22:41:03.490Z,9.85
2023-09-26T22:45:50.699Z,10.75
2023-09-26T22:50:37.975Z,12.25
2023-09-26T22:55:27.931Z,8.35
2023-09-26T23:00:15.729Z,11.02
2023-09-26T23:05:03.001Z,8.55
2023-09-26T23:09:50.167Z,11.13
2023-09-26T23:14:40.088Z,8.45
2023-09-26T23:19:27.290Z,8.15
2023-09-26T23:24:14.423Z,7.38
2023-09-26T23:29:01.707Z,9.10
2023-09-26T23:33:51.443Z,8.35
2023-09-26T23:38:38.735Z,9.15
2023-09-26T23:43:25.998Z,11.02
2023-09-26T23:48:13.244Z,9.23
2023-09-26T23:53:03.362Z,9.27
2023-09-26T23:57:50.704Z,9.07
